Time;durP1;ratioP1;P1;durP2;ratioP2;P2;SDS_P1;SDS_P2;PMS_P1;PMS_P2;Temp;Humidity;BMP_temperature;BMP_pressure;BME280_temperature;BME280_humidity;BME280_pressure;Samples;Min_cycle;Max_cycle;Signal;HPM_P1;HPM_P2
2022/06/16 00:00:14;;;;;;;8.80;7.73;;;21.10;90.00;;;;;;5134493;27;20910;-68
2022/06/16 00:02:45;;;;;;;7.47;6.97;;;21.10;88.50;;;;;;5133305;27;20416;-68
2022/06/16 00:05:12;;;;;;;9.40;7.77;;;21.00;89.50;;;;;;5126460;27;20784;-67
2022/06/16 00:07:39;;;;;;;7.70;7.07;;;21.00;88.10;;;;;;5132574;27;20943;-69
2022/06/16 00:10:05;;;;;;;7.50;7.00;;;21.00;88.30;;;;;;5134711;27;20416;-73
2022/06/16 00:12:31;;;;;;;7.50;7.07;;;20.90;89.00;;;;;;5134806;27;20400;-67
2022/06/16 00:14:58;;;;;;;9.67;7.80;;;20.90;85.50;;;;;;5135057;27;20770;-67
2022/06/16 00:17:24;;;;;;;7.73;7.00;;;20.90;89.80;;;;;;5117152;27;20440;-67
2022/06/16 00:19:50;;;;;;;7.13;6.63;;;20.80;87.30;;;;;;5117403;27;20960;-67
2022/06/16 00:22:15;;;;;;;8.30;7.60;;;20.70;88.70;;;;;;5111871;28;20441;-68
2022/06/16 00:24:41;;;;;;;8.13;7.53;;;20.70;85.00;;;;;;5114193;28;20179;-68
2022/06/16 00:27:07;;;;;;;8.27;7.57;;;20.70;87.30;;;;;;5113324;28;20533;-72
2022/06/16 00:29:34;;;;;;;7.90;7.20;;;20.60;88.20;;;;;;5130843;27;20196;-67
2022/06/16 00:32:00;;;;;;;7.27;6.77;;;20.60;91.00;;;;;;5120812;27;20456;-68
2022/06/16 00:34:26;;;;;;;7.73;6.90;;;20.50;91.10;;;;;;5113211;28;20488;-67
2022/06/16 00:36:53;;;;;;;7.67;6.93;;;20.50;90.80;;;;;;5113538;28;20516;-67
2022/06/16 00:39:19;;;;;;;7.20;6.70;;;20.50;90.40;;;;;;5113201;28;20416;-67
2022/06/16 00:41:45;;;;;;;6.97;6.47;;;20.40;88.50;;;;;;5113951;28;20420;-67
2022/06/16 00:44:29;;;;;;;8.40;7.50;;;20.40;91.30;;;;;;5116293;27;20412;-68
2022/06/16 00:46:55;;;;;;;7.30;6.70;;;20.40;91.10;;;;;;5102216;28;20211;-67
2022/06/16 00:49:20;;;;;;;7.20;6.60;;;20.40;90.90;;;;;;5129192;27;20432;-67
2022/06/16 00:51:54;;;;;;;8.97;6.90;;;20.40;91.70;;;;;;5134273;27;20258;-67
2022/06/16 00:54:25;;;;;;;7.60;7.00;;;20.40;89.40;;;;;;5131803;27;20221;-67
2022/06/16 00:56:55;;;;;;;7.60;7.00;;;20.30;90.40;;;;;;5134262;27;20437;-67
2022/06/16 00:59:23;;;;;;;7.47;6.87;;;20.30;91.50;;;;;;5130874;27;20424;-67
2022/06/16 01:01:50;;;;;;;7.07;6.57;;;20.30;91.90;;;;;;5134141;27;20763;-67
2022/06/16 01:07:08;;;;;;;7.17;6.60;;;20.30;90.70;;;;;;5134008;27;20436;-67
2022/06/16 01:09:34;;;;;;;7.40;6.90;;;20.30;88.20;;;;;;5131453;27;20920;-67
2022/06/16 01:14:56;;;;;;;7.70;7.17;;;20.20;91.10;;;;;;5133719;27;20404;-67
2022/06/16 01:17:42;;;;;;;7.90;7.40;;;20.10;92.40;;;;;;5115537;27;20436;-67
2022/06/16 01:20:46;;;;;;;7.30;6.70;;;20.10;91.80;;;;;;5113079;28;20479;-73
2022/06/16 01:23:49;;;;;;;7.50;6.73;;;20.00;91.60;;;;;;5076535;28;20459;-68
2022/06/16 01:26:39;;;;;;;7.77;6.70;;;20.00;90.90;;;;;;5092122;28;20434;-68
2022/06/16 01:29:34;;;;;;;7.50;6.80;;;20.00;88.50;;;;;;5092804;28;20744;-67
2022/06/16 01:32:35;;;;;;;7.37;6.87;;;20.00;85.10;;;;;;5092756;28;20399;-67
2022/06/16 01:35:35;;;;;;;7.33;6.73;;;20.00;87.70;;;;;;5119090;27;20460;-67
2022/06/16 01:38:15;;;;;;;6.97;6.37;;;19.80;83.90;;;;;;5079652;27;20872;-68
2022/06/16 01:41:05;;;;;;;7.27;6.20;;;19.60;83.50;;;;;;5133431;27;20413;-67
2022/06/16 01:43:43;;;;;;;7.33;6.00;;;19.40;84.70;;;;;;5124664;27;20425;-67
2022/06/16 01:46:08;;;;;;;7.23;6.70;;;19.50;86.30;;;;;;5096247;28;20451;-69
2022/06/16 01:48:36;;;;;;;6.80;6.30;;;19.40;85.20;;;;;;5119278;27;20982;-67
2022/06/16 01:51:12;;;;;;;7.10;6.60;;;19.50;85.50;;;;;;5133313;27;20178;-67
2022/06/16 01:54:07;;;;;;;6.47;5.77;;;19.40;86.70;;;;;;5130616;28;20513;-67
2022/06/16 01:56:50;;;;;;;7.03;6.43;;;19.40;90.50;;;;;;5132493;27;20409;-67
2022/06/16 01:59:22;;;;;;;6.67;6.07;;;19.40;89.30;;;;;;5132538;28;20431;-68
2022/06/16 02:01:52;;;;;;;6.90;6.23;;;19.40;87.70;;;;;;5133298;28;20479;-67
2022/06/16 02:04:27;;;;;;;7.50;6.90;;;19.40;91.80;;;;;;5132378;28;20456;-67
2022/06/16 02:06:57;;;;;;;6.90;6.40;;;19.40;92.10;;;;;;5133230;28;20483;-67
2022/06/16 02:09:38;;;;;;;6.63;5.97;;;19.40;90.90;;;;;;5122343;28;20433;-68
2022/06/16 02:12:10;;;;;;;8.23;7.63;;;19.50;91.10;;;;;;5104424;28;20791;-67
2022/06/16 02:14:46;;;;;;;7.00;6.43;;;19.40;90.30;;;;;;5091662;28;20403;-68
2022/06/16 02:17:12;;;;;;;7.00;6.40;;;19.30;88.10;;;;;;5091687;28;20890;-72
2022/06/16 02:19:39;;;;;;;7.10;6.50;;;19.30;87.60;;;;;;5091809;28;20423;-67
2022/06/16 02:22:04;;;;;;;7.80;7.10;;;19.20;90.40;;;;;;5092142;28;20406;-67
2022/06/16 02:24:31;;;;;;;7.40;6.90;;;19.20;90.80;;;;;;5091327;28;20426;-67
2022/06/16 02:26:58;;;;;;;7.60;6.93;;;19.20;90.80;;;;;;5092041;28;20200;-68
2022/06/16 02:29:29;;;;;;;6.70;6.27;;;19.30;92.40;;;;;;5091248;28;20410;-67
2022/06/16 02:31:55;;;;;;;7.00;6.50;;;19.30;92.10;;;;;;5090907;28;20409;-67
2022/06/16 02:34:29;;;;;;;8.50;7.80;;;19.30;90.60;;;;;;5118910;28;20436;-67
2022/06/16 02:36:58;;;;;;;7.63;6.83;;;19.30;89.00;;;;;;5132943;28;20163;-67
2022/06/16 02:40:18;;;;;;;6.97;6.37;;;19.30;89.80;;;;;;5113294;27;20436;-67
2022/06/16 02:43:03;;;;;;;7.53;6.93;;;19.30;88.90;;;;;;5009869;28;20433;-68
2022/06/16 02:46:02;;;;;;;7.47;6.77;;;19.20;90.00;;;;;;5091474;28;20405;-67
2022/06/16 02:48:41;;;;;;;7.00;6.37;;;19.20;89.40;;;;;;5086346;28;20568;-67
2022/06/16 02:51:16;;;;;;;7.10;6.17;;;19.20;90.90;;;;;;5091770;28;20766;-67
2022/06/16 02:54:09;;;;;;;7.13;6.53;;;19.20;88.70;;;;;;5109241;28;20424;-67
2022/06/16 02:56:46;;;;;;;7.10;6.60;;;19.20;86.70;;;;;;5110075;28;20587;-67
2022/06/16 02:59:23;;;;;;;7.60;6.70;;;19.20;89.00;;;;;;5126051;27;20456;-67
2022/06/16 03:01:50;;;;;;;7.03;6.53;;;19.20;89.30;;;;;;5136649;27;20399;-67
2022/06/16 03:04:18;;;;;;;6.53;5.90;;;19.10;86.40;;;;;;5135019;27;20806;-72
2022/06/16 03:06:45;;;;;;;6.33;5.83;;;19.10;84.80;;;;;;5136322;27;20794;-67
2022/06/16 03:09:11;;;;;;;6.83;5.60;;;19.10;85.40;;;;;;5136305;27;20496;-67
2022/06/16 03:11:38;;;;;;;6.50;6.00;;;19.00;85.20;;;;;;5114058;27;20417;-67
2022/06/16 03:14:04;;;;;;;5.77;5.37;;;19.10;85.70;;;;;;5115641;28;20758;-67
2022/06/16 03:16:31;;;;;;;6.40;5.90;;;19.00;85.00;;;;;;5114774;28;20416;-67
2022/06/16 03:18:57;;;;;;;5.60;5.20;;;19.00;86.40;;;;;;5128345;27;20889;-67
2022/06/16 03:21:23;;;;;;;6.23;5.63;;;19.00;89.20;;;;;;5132511;27;20449;-68
2022/06/16 03:23:49;;;;;;;5.77;5.30;;;19.00;88.40;;;;;;5115540;28;20417;-67
2022/06/16 03:26:14;;;;;;;6.73;6.10;;;18.90;86.50;;;;;;5114311;28;20176;-70
2022/06/16 03:28:40;;;;;;;6.97;6.23;;;18.90;86.40;;;;;;5134131;27;20487;-68
2022/06/16 03:31:06;;;;;;;6.30;5.90;;;18.80;85.40;;;;;;5135938;27;20213;-67
2022/06/16 03:33:32;;;;;;;7.13;6.53;;;18.80;86.00;;;;;;5135041;27;20682;-67
2022/06/16 03:35:58;;;;;;;6.97;6.30;;;18.80;86.30;;;;;;5135914;27;20179;-67
2022/06/16 03:38:34;;;;;;;6.90;6.30;;;18.80;86.50;;;;;;5134958;27;20557;-67
2022/06/16 03:41:00;;;;;;;6.70;6.10;;;18.80;85.90;;;;;;5120616;27;20432;-67
2022/06/16 03:43:26;;;;;;;7.07;6.40;;;18.70;84.80;;;;;;5114558;28;20437;-67
2022/06/16 03:45:51;;;;;;;6.03;5.53;;;18.60;85.60;;;;;;5115043;28;20230;-67
2022/06/16 03:48:17;;;;;;;6.80;6.33;;;18.60;87.10;;;;;;5116680;27;20222;-72
2022/06/16 03:50:43;;;;;;;6.50;6.00;;;18.60;89.30;;;;;;5113105;28;20190;-67
2022/06/16 03:53:09;;;;;;;6.50;6.10;;;18.60;90.70;;;;;;5115403;28;20926;-68
2022/06/16 03:55:35;;;;;;;6.90;6.30;;;18.60;91.50;;;;;;5112667;28;20183;-67
2022/06/16 03:58:00;;;;;;;6.33;5.90;;;18.50;91.10;;;;;;5101771;27;20441;-67
2022/06/16 04:00:28;;;;;;;7.10;6.60;;;18.50;91.40;;;;;;5093210;28;20179;-68
2022/06/16 04:05:39;;;;;;;7.20;6.50;;;18.50;91.30;;;;;;5093423;28;20395;-67
2022/06/16 04:08:06;;;;;;;6.60;6.20;;;18.50;91.30;;;;;;5112923;27;20468;-67
2022/06/16 04:10:32;;;;;;;7.53;6.50;;;18.50;92.00;;;;;;5111587;28;20433;-67
2022/06/16 04:12:58;;;;;;;7.60;6.97;;;18.50;91.50;;;;;;5127794;27;20424;-67
2022/06/16 04:15:24;;;;;;;6.80;6.47;;;18.50;91.50;;;;;;5134314;27;20459;-67
2022/06/16 04:17:50;;;;;;;8.20;7.50;;;18.50;92.30;;;;;;5119797;27;20188;-67
2022/06/16 04:20:15;;;;;;;6.87;6.10;;;18.50;92.00;;;;;;5114197;28;20675;-67
2022/06/16 04:22:42;;;;;;;8.20;6.00;;;18.50;93.00;;;;;;5113533;28;20447;-67
2022/06/16 04:25:12;;;;;;;9.60;5.97;;;18.50;94.00;;;;;;5114040;28;20666;-67
2022/06/16 04:27:39;;;;;;;6.50;5.90;;;18.40;93.20;;;;;;5113466;28;20842;-67
2022/06/16 04:30:06;;;;;;;6.77;6.10;;;18.50;92.00;;;;;;5113910;28;20410;-67
2022/06/16 04:32:31;;;;;;;7.03;6.43;;;18.50;91.20;;;;;;5111902;28;20924;-68
2022/06/16 04:34:57;;;;;;;7.03;6.43;;;18.50;91.10;;;;;;5114048;28;20409;-67
2022/06/16 04:37:23;;;;;;;6.00;5.60;;;18.60;92.30;;;;;;5111218;28;20179;-72
2022/06/16 04:39:49;;;;;;;6.60;6.20;;;18.60;91.50;;;;;;5112489;28;20220;-67
2022/06/16 04:42:14;;;;;;;7.70;7.10;;;18.60;91.60;;;;;;5113933;28;20175;-67
2022/06/16 04:44:40;;;;;;;9.00;6.13;;;18.60;92.00;;;;;;5113132;28;20406;-67
2022/06/16 04:47:07;;;;;;;7.53;6.87;;;18.60;91.40;;;;;;5126327;27;20202;-67
2022/06/16 04:49:33;;;;;;;7.40;6.70;;;18.60;90.60;;;;;;5132179;27;20786;-67
2022/06/16 04:52:00;;;;;;;7.20;6.60;;;18.50;88.50;;;;;;5134230;27;20417;-67
2022/06/16 04:54:25;;;;;;;7.37;6.63;;;18.40;89.10;;;;;;5129976;27;20424;-68
2022/06/16 04:56:51;;;;;;;6.77;6.17;;;18.40;88.90;;;;;;5130490;27;20436;-67
2022/06/16 04:59:17;;;;;;;7.90;7.10;;;18.40;90.20;;;;;;5112156;27;20192;-71
2022/06/16 05:01:43;;;;;;;6.83;6.17;;;18.50;92.40;;;;;;5117480;27;20443;-67
2022/06/16 05:04:09;;;;;;;7.70;7.13;;;18.50;91.20;;;;;;5110285;27;20176;-67
2022/06/16 05:06:36;;;;;;;8.13;7.40;;;18.60;94.20;;;;;;5130825;27;20187;-67
2022/06/16 05:09:02;;;;;;;7.93;7.23;;;18.60;92.00;;;;;;5132739;27;20499;-68
2022/06/16 05:11:28;;;;;;;7.27;6.87;;;18.60;90.50;;;;;;5106763;28;20484;-68
2022/06/16 05:13:53;;;;;;;8.43;7.40;;;18.70;93.50;;;;;;5116253;27;20453;-67
2022/06/16 05:16:19;;;;;;;7.10;6.60;;;18.70;93.60;;;;;;5125465;27;20194;-67
2022/06/16 05:18:45;;;;;;;7.43;6.87;;;18.80;91.20;;;;;;5126882;27;20179;-67
2022/06/16 05:21:14;;;;;;;6.73;6.23;;;18.80;90.70;;;;;;5116798;27;20219;-69
2022/06/16 05:23:40;;;;;;;6.90;6.20;;;18.80;90.10;;;;;;5112300;27;20183;-69
2022/06/16 05:26:07;;;;;;;7.70;6.87;;;18.70;89.70;;;;;;5113068;27;20437;-68
2022/06/16 05:28:34;;;;;;;8.43;6.33;;;18.70;89.00;;;;;;5112219;28;20838;-68
2022/06/16 05:30:59;;;;;;;7.13;6.50;;;18.60;88.70;;;;;;5117873;27;20458;-67
2022/06/16 05:33:25;;;;;;;6.63;6.13;;;18.60;88.30;;;;;;5124670;27;20556;-72
2022/06/16 05:35:58;;;;;;;8.07;5.80;;;18.50;90.70;;;;;;5111935;28;20182;-68
2022/06/16 05:38:24;;;;;;;6.80;6.10;;;18.70;91.30;;;;;;5115164;27;20433;-72
2022/06/16 05:41:02;;;;;;;6.30;5.80;;;18.70;92.50;;;;;;5131640;27;20397;-68
2022/06/16 05:43:29;;;;;;;6.60;6.00;;;18.80;91.50;;;;;;5129766;27;20452;-70
2022/06/16 05:45:55;;;;;;;8.00;6.00;;;18.80;92.30;;;;;;5132387;27;20409;-69
2022/06/16 05:48:21;;;;;;;8.00;6.60;;;18.80;91.40;;;;;;5115280;27;20480;-68
2022/06/16 05:50:47;;;;;;;7.10;6.27;;;18.90;92.00;;;;;;5113675;27;20522;-68
2022/06/16 05:53:13;;;;;;;7.07;5.50;;;19.00;91.50;;;;;;5112760;28;20448;-68
2022/06/16 05:55:39;;;;;;;6.37;5.87;;;19.00;92.00;;;;;;5116029;28;20255;-68
2022/06/16 05:58:05;;;;;;;6.63;6.03;;;19.10;92.10;;;;;;5115760;27;20188;-71
2022/06/16 06:00:31;;;;;;;6.27;5.70;;;19.10;92.70;;;;;;5103884;27;20199;-67
2022/06/16 06:02:59;;;;;;;6.33;5.83;;;19.20;92.20;;;;;;5124005;28;20236;-68
2022/06/16 06:05:26;;;;;;;6.90;6.30;;;19.20;92.00;;;;;;5110878;28;20433;-72
2022/06/16 06:16:25;;;;;;;6.50;5.93;;;19.40;90.70;;;;;;5112627;28;20402;-68
2022/06/16 06:18:58;;;;;;;6.33;5.83;;;19.40;90.20;;;;;;5111659;28;20421;-68
2022/06/16 06:24:32;;;;;;;8.40;5.90;;;19.50;91.20;;;;;;5090660;28;20448;-73
2022/06/16 06:27:02;;;;;;;6.40;5.67;;;19.50;90.00;;;;;;5108568;28;20784;-70
2022/06/16 06:29:27;;;;;;;5.40;4.97;;;19.50;90.60;;;;;;5112379;28;20454;-71
2022/06/16 06:31:53;;;;;;;6.20;5.70;;;19.60;91.30;;;;;;5117312;28;20425;-69
2022/06/16 06:34:19;;;;;;;6.23;5.73;;;19.70;90.70;;;;;;5112111;27;20211;-68
2022/06/16 06:36:45;;;;;;;5.93;5.10;;;19.70;90.10;;;;;;5118975;27;20207;-68
2022/06/16 06:39:12;;;;;;;6.40;5.17;;;19.80;90.30;;;;;;5123472;27;20459;-68
2022/06/16 06:41:38;;;;;;;6.17;5.53;;;19.80;91.20;;;;;;5120466;27;20228;-68
2022/06/16 06:44:04;;;;;;;5.40;5.00;;;19.80;90.70;;;;;;5129830;27;20413;-69
2022/06/16 06:46:30;;;;;;;5.20;4.80;;;19.80;90.20;;;;;;5115687;27;20409;-73
2022/06/16 06:48:56;;;;;;;6.20;5.80;;;19.80;90.00;;;;;;5127651;27;20246;-68
2022/06/16 06:51:21;;;;;;;5.10;4.70;;;19.90;90.40;;;;;;5127607;27;20556;-68
2022/06/16 06:53:47;;;;;;;5.40;4.90;;;19.90;90.50;;;;;;5120035;27;20294;-68
2022/06/16 06:56:14;;;;;;;5.73;5.20;;;19.90;90.00;;;;;;5115736;28;20167;-69
2022/06/16 06:58:40;;;;;;;5.43;5.03;;;20.00;90.00;;;;;;5104117;28;20189;-68
2022/06/16 07:01:06;;;;;;;9.30;4.47;;;20.00;88.40;;;;;;5130218;27;20899;-68
2022/06/16 07:03:32;;;;;;;4.97;4.50;;;20.10;89.60;;;;;;5125342;27;20455;-73
2022/06/16 07:06:02;;;;;;;5.40;5.00;;;20.10;88.40;;;;;;5114595;28;22147;-68
2022/06/16 07:08:28;;;;;;;5.33;4.80;;;20.20;88.90;;;;;;5115828;28;20460;-69
2022/06/16 07:10:54;;;;;;;7.33;4.23;;;20.30;89.70;;;;;;5121259;27;20429;-68
2022/06/16 07:13:20;;;;;;;5.10;4.70;;;20.40;87.00;;;;;;5118227;27;20940;-69
2022/06/16 07:15:46;;;;;;;5.50;5.00;;;20.50;87.30;;;;;;5134348;27;20473;-68
2022/06/16 07:18:12;;;;;;;4.73;4.33;;;20.60;87.80;;;;;;5136424;27;20174;-69
2022/06/16 07:20:39;;;;;;;5.20;4.77;;;20.70;88.90;;;;;;5127980;27;20479;-69
2022/06/16 07:23:05;;;;;;;4.97;4.47;;;20.80;88.20;;;;;;5115085;28;20601;-68
2022/06/16 07:25:31;;;;;;;5.40;5.07;;;20.80;88.10;;;;;;5115114;28;20512;-73
2022/06/16 07:27:58;;;;;;;5.60;5.20;;;20.90;87.30;;;;;;5114813;28;20536;-68
2022/06/16 07:30:24;;;;;;;7.00;4.77;;;21.00;86.40;;;;;;5113338;27;20191;-69
2022/06/16 07:32:51;;;;;;;4.97;4.57;;;21.10;89.20;;;;;;5119289;27;20435;-71
2022/06/16 07:35:21;;;;;;;4.97;4.60;;;21.30;88.10;;;;;;5115632;27;20435;-69
2022/06/16 07:37:47;;;;;;;5.00;4.60;;;21.40;86.00;;;;;;5116804;27;20527;-69
2022/06/16 07:40:16;;;;;;;5.03;4.63;;;21.50;85.80;;;;;;5123596;27;20507;-70
2022/06/16 07:42:41;;;;;;;5.60;5.17;;;21.70;92.80;;;;;;5134886;27;20440;-70
2022/06/16 07:45:08;;;;;;;5.30;4.80;;;21.80;89.30;;;;;;5134869;27;20441;-69
2022/06/16 07:47:34;;;;;;;11.93;10.40;;;21.90;88.00;;;;;;5134567;27;20495;-72
2022/06/16 07:50:01;;;;;;;7.03;6.33;;;21.90;84.20;;;;;;5135568;27;20409;-68
2022/06/16 07:52:29;;;;;;;15.40;13.53;;;21.90;82.20;;;;;;5135931;27;20451;-68
2022/06/16 07:54:55;;;;;;;16.60;14.63;;;21.90;80.50;;;;;;5134830;27;20409;-69
2022/06/16 07:57:21;;;;;;;24.70;18.87;;;22.00;79.80;;;;;;5120062;27;20468;-69
2022/06/16 07:59:50;;;;;;;31.20;25.27;;;21.90;80.10;;;;;;5113735;28;20171;-68
2022/06/16 08:02:16;;;;;;;16.30;14.60;;;21.90;79.70;;;;;;5114625;28;20420;-69
2022/06/16 08:04:42;;;;;;;8.50;7.70;;;22.00;80.00;;;;;;5110638;28;20520;-69
2022/06/16 08:07:08;;;;;;;5.70;5.10;;;22.00;80.00;;;;;;5115162;28;20449;-68
2022/06/16 08:09:34;;;;;;;16.73;14.87;;;22.10;81.20;;;;;;5114201;28;20184;-72
2022/06/16 08:12:03;;;;;;;17.67;14.73;;;22.20;80.30;;;;;;5114275;28;20175;-68
2022/06/16 08:14:30;;;;;;;13.43;12.03;;;22.30;80.00;;;;;;5113993;28;20210;-69
2022/06/16 08:16:56;;;;;;;10.00;8.90;;;22.20;79.20;;;;;;5113565;28;20969;-69
2022/06/16 08:19:22;;;;;;;15.43;13.07;;;22.20;78.50;;;;;;5113857;28;20501;-69
2022/06/16 08:21:48;;;;;;;8.13;7.37;;;22.00;77.70;;;;;;5113461;28;20195;-68
2022/06/16 08:24:15;;;;;;;6.73;5.33;;;21.90;77.50;;;;;;5114186;28;20420;-69
2022/06/16 08:26:42;;;;;;;5.40;5.00;;;21.70;77.20;;;;;;5111745;28;20413;-69
2022/06/16 08:29:11;;;;;;;15.10;13.07;;;21.60;76.90;;;;;;5114067;28;20424;-69
2022/06/16 08:31:37;;;;;;;7.67;6.87;;;21.80;76.90;;;;;;5113121;28;20409;-73
2022/06/16 08:34:03;;;;;;;12.83;11.47;;;21.90;76.50;;;;;;5112350;28;20414;-69
2022/06/16 08:36:29;;;;;;;18.27;15.00;;;21.80;76.50;;;;;;5114088;28;20406;-69
2022/06/16 08:38:55;;;;;;;21.20;15.93;;;21.80;76.50;;;;;;5113061;28;20490;-69
2022/06/16 08:41:38;;;;;;;13.70;12.10;;;21.80;76.20;;;;;;5113424;28;20175;-68
2022/06/16 08:44:22;;;;;;;32.60;24.60;;;22.00;75.90;;;;;;5111027;28;20425;-69
2022/06/16 08:47:15;;;;;;;42.70;32.03;;;22.10;76.40;;;;;;5108612;28;20406;-69
2022/06/16 08:50:02;;;;;;;41.27;30.57;;;22.30;76.40;;;;;;5111541;28;20447;-69
2022/06/16 08:53:06;;;;;;;29.40;23.93;;;22.20;76.40;;;;;;5111503;28;20420;-69
2022/06/16 08:56:08;;;;;;;11.23;10.00;;;22.20;75.90;;;;;;5113200;27;20776;-69
2022/06/16 08:58:42;;;;;;;9.10;8.40;;;21.90;75.00;;;;;;5110558;28;20413;-69
2022/06/16 09:01:23;;;;;;;7.27;6.10;;;21.80;74.10;;;;;;5113283;28;20453;-69
2022/06/16 09:03:57;;;;;;;5.90;5.30;;;21.70;73.90;;;;;;5108782;28;20966;-69
2022/06/16 09:06:54;;;;;;;6.97;6.30;;;21.70;73.10;;;;;;5113016;28;20829;-69
2022/06/16 09:12:31;;;;;;;7.40;6.80;;;21.90;72.00;;;;;;5113442;28;20756;-70
2022/06/16 09:15:52;;;;;;;4.70;4.30;;;21.90;71.10;;;;;;5109989;28;20515;-72
2022/06/16 09:18:38;;;;;;;7.00;6.23;;;21.80;70.60;;;;;;5078139;28;20453;-69
2022/06/16 09:21:34;;;;;;;8.83;7.93;;;22.00;70.80;;;;;;5110939;28;20453;-69
2022/06/16 09:24:18;;;;;;;11.27;10.10;;;22.00;70.30;;;;;;5106630;28;20441;-71
2022/06/16 09:27:00;;;;;;;23.33;15.37;;;22.10;72.50;;;;;;5109763;28;20482;-70
2022/06/16 09:29:32;;;;;;;11.40;8.30;;;22.30;76.80;;;;;;5110483;28;20444;-70
2022/06/16 09:32:36;;;;;;;9.47;7.00;;;22.30;74.10;;;;;;5109544;28;20420;-70
2022/06/16 09:35:23;;;;;;;5.10;4.70;;;22.30;73.50;;;;;;5068704;28;20427;-71
2022/06/16 09:38:18;;;;;;;4.70;4.40;;;22.40;72.60;;;;;;5107817;28;20498;-71
2022/06/16 09:40:49;;;;;;;3.83;3.50;;;22.40;69.70;;;;;;5109977;28;20755;-70
2022/06/16 09:43:19;;;;;;;3.53;3.30;;;22.20;67.10;;;;;;5112817;28;20386;-71
2022/06/16 09:46:03;;;;;;;3.60;3.40;;;22.20;67.00;;;;;;5111837;28;20440;-71
2022/06/16 09:48:37;;;;;;;3.30;3.10;;;22.30;66.50;;;;;;5111443;28;20525;-71
2022/06/16 09:51:21;;;;;;;16.93;11.87;;;22.50;66.80;;;;;;5109964;28;20418;-71
2022/06/16 09:54:00;;;;;;;4.50;4.10;;;22.80;66.30;;;;;;5110422;28;20956;-70
2022/06/16 09:56:37;;;;;;;3.57;3.30;;;23.10;65.10;;;;;;5110890;28;20903;-71
2022/06/16 09:59:18;;;;;;;4.43;3.47;;;23.10;64.30;;;;;;5111704;28;20405;-76
2022/06/16 10:01:54;;;;;;;3.20;3.00;;;23.10;65.40;;;;;;5112054;28;20393;-74
2022/06/16 10:04:20;;;;;;;3.70;3.40;;;22.90;62.90;;;;;;5112969;28;20404;-75
2022/06/16 10:07:25;;;;;;;3.40;3.20;;;22.80;63.90;;;;;;5107719;28;20434;-75
2022/06/16 10:10:40;;;;;;;3.00;2.80;;;22.70;63.50;;;;;;5114591;28;20417;-76
2022/06/16 10:13:19;;;;;;;4.23;3.70;;;22.60;63.40;;;;;;5070568;28;20911;-75
2022/06/16 10:16:00;;;;;;;3.07;2.80;;;22.40;63.50;;;;;;5114426;28;20985;-74
2022/06/16 10:18:26;;;;;;;3.37;3.27;;;22.60;62.10;;;;;;5098084;28;21150;-75
2022/06/16 10:20:53;;;;;;;3.13;3.03;;;22.60;61.00;;;;;;5115597;28;20540;-75
2022/06/16 10:23:29;;;;;;;2.70;2.60;;;22.40;61.00;;;;;;5116712;28;20474;-76
2022/06/16 10:26:02;;;;;;;3.37;3.27;;;22.50;61.10;;;;;;5113234;28;20440;-75
2022/06/16 10:28:32;;;;;;;2.60;2.50;;;22.60;59.50;;;;;;5115753;28;20472;-76
2022/06/16 10:31:00;;;;;;;3.40;3.20;;;22.40;59.10;;;;;;5115749;28;20820;-76
2022/06/16 10:33:29;;;;;;;3.00;2.90;;;22.40;59.50;;;;;;5116358;28;20504;-75
2022/06/16 10:36:03;;;;;;;2.77;2.67;;;22.50;59.60;;;;;;5115780;27;20406;-75
2022/06/16 10:38:36;;;;;;;2.90;2.70;;;22.50;59.80;;;;;;5116463;28;20405;-76
2022/06/16 10:41:25;;;;;;;3.23;2.93;;;22.40;59.90;;;;;;5115920;28;20589;-75
2022/06/16 10:43:53;;;;;;;3.30;3.20;;;22.60;61.50;;;;;;5115364;28;20421;-75
2022/06/16 10:46:28;;;;;;;20.90;18.87;;;22.90;61.40;;;;;;5116398;28;20221;-75
2022/06/16 10:48:56;;;;;;;3.67;2.50;;;22.80;60.10;;;;;;5115694;28;20464;-77
2022/06/16 10:51:25;;;;;;;2.40;2.30;;;22.60;60.50;;;;;;5115929;28;20935;-76
2022/06/16 10:54:23;;;;;;;2.97;2.87;;;22.60;61.20;;;;;;5062432;28;20414;-76
2022/06/16 10:56:49;;;;;;;3.80;3.47;;;22.40;61.00;;;;;;5080499;28;20425;-75
2022/06/16 10:59:14;;;;;;;3.10;2.83;;;22.60;61.70;;;;;;5114909;28;20428;-76
2022/06/16 11:01:47;;;;;;;3.33;2.60;;;22.80;61.40;;;;;;5115968;28;20528;-76
2022/06/16 11:04:18;;;;;;;3.23;3.00;;;22.90;61.90;;;;;;5115980;28;20163;-76
2022/06/16 11:06:47;;;;;;;2.90;2.80;;;22.90;61.00;;;;;;5114265;28;20743;-74
2022/06/16 11:09:18;;;;;;;3.50;3.20;;;22.70;60.40;;;;;;5115930;28;20410;-76
2022/06/16 11:11:53;;;;;;;3.30;3.10;;;22.70;61.10;;;;;;5115465;28;20390;-75
2022/06/16 11:14:39;;;;;;;3.53;3.43;;;22.90;61.30;;;;;;5115776;28;20393;-76
2022/06/16 11:17:11;;;;;;;3.30;3.20;;;23.10;61.40;;;;;;5114864;28;20469;-76
2022/06/16 11:19:44;;;;;;;3.27;3.03;;;23.10;60.10;;;;;;5115569;28;20422;-76
2022/06/16 11:22:24;;;;;;;2.87;2.70;;;23.00;62.20;;;;;;5116159;28;20402;-76
2022/06/16 11:25:05;;;;;;;3.00;2.90;;;23.20;61.40;;;;;;5112925;28;20440;-75
2022/06/16 11:27:45;;;;;;;4.67;4.47;;;23.00;60.60;;;;;;5115725;28;20824;-75
2022/06/16 11:30:43;;;;;;;284.27;244.80;;;23.20;62.60;;;;;;5115203;28;20394;-75
2022/06/16 11:36:39;;;;;;;5.87;5.30;;;23.80;60.60;;;;;;5115326;28;20517;-75
2022/06/16 11:39:28;;;;;;;5.93;4.77;;;23.70;60.90;;;;;;5114494;28;20393;-75
2022/06/16 11:41:55;;;;;;;4.67;4.40;;;23.30;60.90;;;;;;5114434;28;20489;-75
2022/06/16 11:44:33;;;;;;;4.07;3.77;;;23.40;61.40;;;;;;5112992;28;20437;-76
2022/06/16 11:47:14;;;;;;;4.33;4.13;;;23.20;61.10;;;;;;5113429;28;20441;-76
2022/06/16 11:49:49;;;;;;;3.90;3.70;;;23.00;61.20;;;;;;5114952;28;20421;-75
2022/06/16 11:52:35;;;;;;;3.50;3.30;;;23.10;63.00;;;;;;5115143;28;20493;-75
2022/06/16 11:55:32;;;;;;;3.60;3.37;;;23.10;62.70;;;;;;5113361;28;20421;-75
2022/06/16 11:58:19;;;;;;;3.50;3.27;;;23.30;67.70;;;;;;5114176;28;20397;-75
2022/06/16 12:00:54;;;;;;;3.63;3.43;;;23.40;64.10;;;;;;5113705;28;20504;-76
2022/06/16 12:03:35;;;;;;;3.10;3.00;;;23.30;62.60;;;;;;5117699;28;20405;-76
2022/06/16 12:06:24;;;;;;;3.60;3.40;;;23.50;68.50;;;;;;5112837;28;20489;-75
2022/06/16 12:09:58;;;;;;;4.10;3.70;;;24.00;69.10;;;;;;5112643;28;20497;-75
2022/06/16 12:12:39;;;;;;;3.43;3.23;;;24.50;67.90;;;;;;5019446;28;20939;-75
2022/06/16 12:15:40;;;;;;;3.80;3.50;;;25.00;69.00;;;;;;5103173;28;20434;-75
2022/06/16 12:18:05;;;;;;;3.50;3.30;;;25.40;70.20;;;;;;5113714;28;20421;-75
2022/06/16 12:20:51;;;;;;;3.50;3.40;;;25.70;64.70;;;;;;5114292;28;20849;-75
2022/06/16 12:23:46;;;;;;;3.63;3.43;;;26.00;64.60;;;;;;5114549;28;20168;-75
2022/06/16 12:26:24;;;;;;;4.07;3.87;;;26.20;59.20;;;;;;5114941;28;20810;-75
2022/06/16 12:29:10;;;;;;;4.13;3.73;;;26.30;58.50;;;;;;5114168;28;20437;-75
2022/06/16 12:31:53;;;;;;;3.90;3.70;;;26.40;59.80;;;;;;5097672;28;20526;-75
2022/06/16 12:34:28;;;;;;;4.60;4.20;;;26.40;59.00;;;;;;5114374;28;20480;-75
2022/06/16 12:36:58;;;;;;;3.60;3.40;;;26.50;60.00;;;;;;5114013;28;20454;-75
2022/06/16 12:39:35;;;;;;;3.80;3.60;;;26.50;58.70;;;;;;5114759;28;20409;-75
2022/06/16 12:42:10;;;;;;;3.70;3.60;;;26.60;59.00;;;;;;5113911;28;20397;-75
2022/06/16 12:44:39;;;;;;;3.87;3.63;;;26.60;60.20;;;;;;5060418;28;20852;-75
2022/06/16 12:47:17;;;;;;;4.53;4.23;;;26.70;60.80;;;;;;5113755;28;20386;-75
2022/06/16 12:50:00;;;;;;;4.73;3.87;;;26.80;60.20;;;;;;5114308;28;20425;-75
2022/06/16 12:52:35;;;;;;;4.60;4.30;;;26.90;56.80;;;;;;5114486;28;20404;-75
2022/06/16 12:55:13;;;;;;;4.20;3.90;;;26.80;55.50;;;;;;5113789;28;20418;-75
2022/06/16 12:57:44;;;;;;;4.20;4.00;;;26.70;57.80;;;;;;5113922;28;20865;-75
2022/06/16 13:00:19;;;;;;;4.07;3.87;;;26.70;61.00;;;;;;5113622;28;20393;-75
2022/06/16 13:02:55;;;;;;;3.67;3.57;;;26.80;60.30;;;;;;5111262;28;20456;-75
2022/06/16 13:05:21;;;;;;;4.40;4.10;;;26.80;58.30;;;;;;5093057;28;20447;-75
2022/06/16 13:07:50;;;;;;;4.10;3.90;;;26.70;58.20;;;;;;5116243;27;20962;-70
2022/06/16 13:10:17;;;;;;;4.17;3.87;;;26.70;61.70;;;;;;5120662;27;20209;-70
2022/06/16 13:12:54;;;;;;;3.90;3.70;;;26.80;63.60;;;;;;5127339;27;20942;-68
2022/06/16 13:15:32;;;;;;;3.47;3.27;;;26.90;62.30;;;;;;5102730;28;20964;-70
2022/06/16 13:18:41;;;;;;;4.80;4.10;;;27.00;62.20;;;;;;5102218;27;20425;-70
2022/06/16 13:21:07;;;;;;;4.27;3.63;;;27.10;59.20;;;;;;5112481;28;20522;-69
2022/06/16 13:23:37;;;;;;;4.80;4.50;;;27.10;58.80;;;;;;5108634;28;20933;-70
2022/06/16 13:26:15;;;;;;;4.50;4.10;;;27.10;60.50;;;;;;5118932;27;20428;-70
2022/06/16 13:29:15;;;;;;;4.30;4.10;;;27.10;58.50;;;;;;5112041;27;20949;-69
2022/06/16 13:32:02;;;;;;;54.47;44.03;;;27.10;57.50;;;;;;5101513;28;20456;-70
2022/06/16 13:34:51;;;;;;;83.30;68.50;;;27.00;59.40;;;;;;5118501;27;20889;-70
2022/06/16 13:37:35;;;;;;;9.07;6.40;;;27.00;58.70;;;;;;5133142;27;20412;-70
2022/06/16 13:40:07;;;;;;;4.97;4.67;;;27.00;58.00;;;;;;5117199;27;20429;-69
2022/06/16 13:43:11;;;;;;;7.23;5.70;;;27.00;59.40;;;;;;5113319;27;20534;-70